Μυτιλήνη, Ελλάδα

07:36 AM EET on Ιανουάριος 20, 2017 (GMT +0200)
Odysseas Elytis | | Change Station

Elev 16 ft 39.07 °N, 26.60 °E | Updated 16 minutes ago

Mostly Cloudy
Νεφελώδης
46 ° F
Feels Like 40 ° F
N
15
Ανεμος Μεταβλητός Ανεμος from ΒΒΑ

Σήμερα
High -- | Low -- ° F
--% Chance of Precip.
Yesterday
High -- | Low -- ° F
Precip. -- in
Ατμοσφαιρική Πίεση 30.30 in
Ορατότητα 6.2 Μίλια
Σύννεφα Διάσπαρτα Νέφη 2500 ft
Νεφελώδης 8000 ft
Δείκτης Ψυχρότητας 40 ° F
Σημείο Δρόσου 39 ° F
Υγρασία 76%
Rainfall 0.00 in
Snow Depth Not available.
7:28 AM 5:20 PM
Αμφίκυρτος, 47% visible
METAR LGMT 200520Z 02013KT 9999 SCT025 BKN080 08/04 Q1026
Ατμοσφαιρική Πίεση 30.30 in
Ορατότητα 6.2 Μίλια
Σύννεφα Διάσπαρτα Νέφη 2500 ft
Νεφελώδης 8000 ft
Δείκτης Ψυχρότητας 40 ° F
Σημείο Δρόσου 39 ° F
Υγρασία 76%
Rainfall 0.00 in
Snow Depth Not available.
7:28 AM 5:20 PM
Αμφίκυρτος, 47% visible
METAR LGMT 200520Z 02013KT 9999 SCT025 BKN080 08/04 Q1026

Get Your Daily Forecast Email!

Thanks for signing up!

Be on the lookout for a verification email in your inbox.

You'll start receiving the daily forecast at 8 AM.

×

10-Day Weather Forecast

×

Almanac

Αστρονομία

Jan. 20, 2017 Rise Set
Actual Time
Civil Twilight
Nautical Twilight
Astronomical Twilight
Moon
Length Of Visible Light
Διάρκεια ημέρας
Tomorrow will be .
, % of the Moon is Illuminated

Today's Extremes

Country Highs Country Lows

Community

WunderPhotos

Upload Photos

1,962,540 photos uploaded!

WunderBlog® & News

Nearby

Air Quality

  Air Quality AQ Index Pollutant
Not available.

Snow Depth

Station Depth Elevation

Earthquake Activity

City Distance Mag. Time & Date
Minimum magnitude displayed is 2.5.

Coastal Water Temperatures

Τοποθεσία Θερμοκρασία

Stations

Nearby Weather Stations

Station Location Temp Δείκτης Ψυχρότητας Σημείο Δρόσου Υγρασία Ανεμος Precip. Elev Ενημερώθηκε Type